createdAt,value
2022-08-09T00:00:19.596Z,0
2022-08-09T00:01:24.159Z,0
2022-08-09T00:02:58.549Z,0
2022-08-09T00:04:06.299Z,0
2022-08-09T00:07:21.305Z,0
2022-08-09T00:08:48.111Z,0
2022-08-09T00:09:59.430Z,0
2022-08-09T00:11:05.749Z,0
2022-08-09T00:13:06.485Z,0
2022-08-09T00:14:22.137Z,0
2022-08-09T00:15:59.678Z,0
2022-08-09T00:17:07.314Z,0
2022-08-09T00:19:22.398Z,0
2022-08-09T00:20:31.524Z,0
2022-08-09T00:21:56.467Z,0
2022-08-09T00:23:08.498Z,0
2022-08-09T00:25:03.878Z,0
2022-08-09T00:26:35.778Z,0
2022-08-09T00:27:42.912Z,0
2022-08-09T00:28:51.324Z,0
2022-08-09T00:30:10.582Z,0
2022-08-09T00:31:30.846Z,0
2022-08-09T00:33:05.700Z,0
2022-08-09T00:34:10.923Z,0
2022-08-09T00:35:14.578Z,0
2022-08-09T00:36:21.202Z,0
2022-08-09T00:37:32.732Z,0
2022-08-09T00:38:37.603Z,0
2022-08-09T00:40:09.950Z,0
2022-08-09T00:44:09.734Z,0
2022-08-09T00:45:38.182Z,0
2022-08-09T00:47:05.325Z,0
2022-08-09T00:48:08.444Z,0
2022-08-09T00:49:23.836Z,0
2022-08-09T00:50:33.593Z,0
2022-08-09T00:51:54.677Z,0
2022-08-09T00:53:08.765Z,0
2022-08-09T00:54:16.724Z,0
2022-08-09T00:55:33.071Z,0
2022-08-09T00:57:24.868Z,0
2022-08-09T00:58:41.016Z,0
2022-08-09T00:59:53.203Z,0
2022-08-09T01:01:24.512Z,0
2022-08-09T01:02:54.504Z,0
2022-08-09T01:03:57.615Z,0
2022-08-09T01:05:02.492Z,0
2022-08-09T01:06:55.837Z,0
2022-08-09T01:07:59.885Z,0
2022-08-09T01:09:03.521Z,0
2022-08-09T01:10:14.306Z,0
2022-08-09T01:11:29.810Z,0
2022-08-09T01:12:37.287Z,0
2022-08-09T01:13:41.693Z,0
2022-08-09T01:15:05.679Z,0
2022-08-09T01:16:20.627Z,0
2022-08-09T01:17:30.173Z,0
2022-08-09T01:18:37.175Z,0
2022-08-09T01:19:43.176Z,0
2022-08-09T01:21:09.963Z,0
2022-08-09T01:22:15.380Z,0
2022-08-09T01:24:01.396Z,0
2022-08-09T01:25:08.506Z,0
2022-08-09T01:26:23.990Z,0
2022-08-09T01:27:29.438Z,0
2022-08-09T01:28:35.335Z,0
2022-08-09T01:29:55.428Z,0
2022-08-09T01:31:01.398Z,0
2022-08-09T01:32:30.605Z,0
2022-08-09T01:33:39.398Z,0
2022-08-09T01:34:42.220Z,0
2022-08-09T01:35:51.771Z,0
2022-08-09T01:36:55.682Z,0
2022-08-09T01:38:06.475Z,0
2022-08-09T01:39:18.955Z,0
2022-08-09T01:40:28.744Z,0
2022-08-09T01:41:34.120Z,0
2022-08-09T01:42:37.438Z,0
2022-08-09T01:43:50.329Z,0
2022-08-09T01:44:55.511Z,0
2022-08-09T01:46:02.635Z,0
2022-08-09T01:47:11.547Z,0
2022-08-09T01:48:19.683Z,0
2022-08-09T01:49:39.856Z,0
2022-08-09T01:50:57.971Z,0
2022-08-09T01:52:07.201Z,0
2022-08-09T01:53:19.110Z,0
2022-08-09T01:54:43.728Z,0
2022-08-09T01:55:46.970Z,0
2022-08-09T01:56:51.392Z,0
2022-08-09T01:57:57.533Z,0
2022-08-09T01:59:06.258Z,0
2022-08-09T02:00:19.415Z,0
2022-08-09T02:01:58.917Z,0
2022-08-09T02:03:10.559Z,0
2022-08-09T02:04:16.165Z,0
2022-08-09T02:05:19.074Z,0
2022-08-09T02:07:15.293Z,0
2022-08-09T02:10:05.414Z,0
2022-08-09T02:11:13.430Z,0
2022-08-09T02:12:21.304Z,0
2022-08-09T02:13:37.748Z,0
2022-08-09T02:15:36.132Z,0
2022-08-09T02:16:59.371Z,0
2022-08-09T02:19:14.253Z,0
2022-08-09T02:20:25.393Z,0
2022-08-09T02:21:40.582Z,0
2022-08-09T02:22:45.550Z,0
2022-08-09T02:23:52.269Z,0
2022-08-09T02:24:58.546Z,0
2022-08-09T02:26:02.340Z,0
2022-08-09T02:27:05.559Z,0
2022-08-09T02:28:09.533Z,0
2022-08-09T02:29:20.117Z,0
2022-08-09T02:30:23.713Z,0
2022-08-09T02:31:30.001Z,0
2022-08-09T02:32:39.209Z,0
2022-08-09T02:33:58.506Z,0
2022-08-09T02:36:02.277Z,0
2022-08-09T02:37:13.020Z,0
2022-08-09T02:38:21.919Z,0
2022-08-09T02:39:39.946Z,0
2022-08-09T02:41:11.611Z,0
2022-08-09T02:42:17.675Z,0
2022-08-09T02:43:28.770Z,0
2022-08-09T02:44:57.395Z,0
2022-08-09T02:46:01.846Z,0
2022-08-09T02:47:06.039Z,0
2022-08-09T02:48:12.200Z,0
2022-08-09T02:49:38.587Z,0
2022-08-09T02:50:44.136Z,0
2022-08-09T02:51:47.897Z,0
2022-08-09T02:52:56.045Z,0
2022-08-09T02:54:00.745Z,0
2022-08-09T02:55:15.168Z,0
2022-08-09T02:56:23.969Z,0
2022-08-09T02:57:30.272Z,0
2022-08-09T02:59:57.899Z,0
2022-08-09T03:01:42.909Z,4
2022-08-09T03:04:05.727Z,4
2022-08-09T03:05:34.291Z,0
2022-08-09T03:06:49.252Z,4
2022-08-09T03:07:55.255Z,4
2022-08-09T03:08:58.527Z,4
2022-08-09T03:10:01.234Z,8
2022-08-09T03:11:05.823Z,4
2022-08-09T03:13:14.674Z,8
2022-08-09T03:14:18.351Z,8
2022-08-09T03:15:40.739Z,12
2022-08-09T03:17:16.297Z,16
2022-08-09T03:18:30.434Z,16
2022-08-09T03:19:53.033Z,20
2022-08-09T03:21:15.875Z,24
2022-08-09T03:22:41.279Z,32
2022-08-09T03:24:31.351Z,44
2022-08-09T03:27:07.264Z,56
2022-08-09T03:28:11.563Z,68
2022-08-09T03:29:22.853Z,76
2022-08-09T03:31:10.259Z,96
2022-08-09T03:32:27.328Z,108
2022-08-09T03:33:51.615Z,120
2022-08-09T03:35:00.509Z,144
2022-08-09T03:37:55.094Z,180
2022-08-09T03:39:04.059Z,212
2022-08-09T03:40:13.023Z,232
2022-08-09T03:41:20.590Z,256
2022-08-09T03:43:11.660Z,300
2022-08-09T03:44:18.649Z,328
2022-08-09T03:46:03.602Z,360
2022-08-09T03:47:36.641Z,416
2022-08-09T03:48:51.595Z,456
2022-08-09T03:49:57.803Z,492
2022-08-09T03:51:05.064Z,528
2022-08-09T03:53:10.613Z,600
2022-08-09T03:54:16.355Z,636
2022-08-09T03:55:36.012Z,680
2022-08-09T03:56:46.814Z,728
2022-08-09T03:58:03.540Z,776
2022-08-09T03:59:27.545Z,828
2022-08-09T04:01:03.947Z,892
2022-08-09T04:02:09.374Z,932
2022-08-09T04:03:15.334Z,976
2022-08-09T04:05:17.089Z,1056
2022-08-09T04:06:49.009Z,1112
2022-08-09T04:07:57.398Z,1156
2022-08-09T04:09:01.062Z,1204
2022-08-09T04:10:55.720Z,1284
2022-08-09T04:12:30.275Z,1336
2022-08-09T04:13:45.266Z,1388
2022-08-09T04:17:23.087Z,1540
2022-08-09T04:18:26.406Z,1580
2022-08-09T04:19:43.198Z,1620
2022-08-09T04:21:04.066Z,1680
2022-08-09T04:22:07.008Z,1716
2022-08-09T04:23:23.586Z,1764
2022-08-09T04:24:27.918Z,1804
2022-08-09T04:25:34.363Z,1840
2022-08-09T04:26:38.768Z,1880
2022-08-09T04:27:41.975Z,1916
2022-08-09T04:28:55.022Z,1956
2022-08-09T04:30:17.593Z,2004
2022-08-09T04:31:37.463Z,2044
2022-08-09T04:32:52.325Z,2092
2022-08-09T04:33:59.390Z,2132
2022-08-09T04:35:04.163Z,2164
2022-08-09T04:36:12.271Z,2200
2022-08-09T04:37:42.364Z,2240
2022-08-09T04:38:50.796Z,2288
2022-08-09T04:39:55.353Z,2316
2022-08-09T04:41:03.711Z,2352
2022-08-09T04:42:15.748Z,2388
2022-08-09T04:43:30.536Z,2428
2022-08-09T04:45:20.377Z,2480
2022-08-09T04:46:37.756Z,2520
2022-08-09T04:48:10.482Z,2564
2022-08-09T04:49:14.475Z,2592
2022-08-09T04:50:56.534Z,2648
2022-08-09T04:52:02.586Z,2680
2022-08-09T04:53:13.335Z,2712
2022-08-09T04:54:17.658Z,2744
2022-08-09T04:55:20.801Z,2776
2022-08-09T04:56:26.561Z,2808
2022-08-09T04:57:53.837Z,2836
2022-08-09T04:59:17.023Z,2888
2022-08-09T05:00:31.742Z,2924
2022-08-09T05:01:39.019Z,2956
2022-08-09T05:02:42.235Z,2984
2022-08-09T05:03:56.753Z,3020
2022-08-09T05:05:10.004Z,3052
2022-08-09T05:06:18.287Z,3084
2022-08-09T05:07:38.209Z,3124
2022-08-09T05:09:00.064Z,3156
2022-08-09T05:10:04.582Z,3184
2022-08-09T05:11:07.673Z,3212
2022-08-09T05:12:12.665Z,3244
2022-08-09T05:13:17.834Z,3268
2022-08-09T05:14:41.093Z,3304
2022-08-09T05:15:48.314Z,3336
2022-08-09T05:17:00.840Z,3368
2022-08-09T05:18:37.296Z,3392
2022-08-09T05:20:09.901Z,3444
2022-08-09T05:21:23.461Z,3468
2022-08-09T05:23:50.774Z,3516
2022-08-09T05:25:11.611Z,3568
2022-08-09T05:26:22.242Z,3592
2022-08-09T05:27:50.335Z,3632
2022-08-09T05:28:56.547Z,3660
2022-08-09T05:30:04.744Z,3692
2022-08-09T05:31:15.023Z,3724
2022-08-09T05:33:00.610Z,3756
2022-08-09T05:34:16.413Z,3780
2022-08-09T05:35:21.891Z,3812
2022-08-09T05:36:26.404Z,3844
2022-08-09T05:37:38.206Z,3864
2022-08-09T05:38:52.805Z,3892
2022-08-09T05:39:57.849Z,3908
2022-08-09T05:41:05.794Z,3936
2022-08-09T05:42:21.151Z,3964
2022-08-09T05:43:31.791Z,3988
2022-08-09T05:44:35.787Z,4012
2022-08-09T05:45:52.868Z,4028
2022-08-09T05:47:01.236Z,4036
2022-08-09T05:48:10.794Z,4092
2022-08-09T05:50:11.115Z,4124
2022-08-09T05:52:52.224Z,4220
2022-08-09T05:53:59.074Z,4252
2022-08-09T05:55:08.495Z,4280
2022-08-09T05:56:26.281Z,4300
2022-08-09T05:57:50.557Z,4312
2022-08-09T05:59:04.113Z,4336
2022-08-09T06:00:07.613Z,4384
2022-08-09T06:01:15.877Z,4408
2022-08-09T06:02:23.356Z,4440
2022-08-09T06:03:34.679Z,4468
2022-08-09T06:05:08.574Z,4500
2022-08-09T06:06:16.983Z,4532
2022-08-09T06:07:21.219Z,4556
2022-08-09T06:08:28.959Z,4584
2022-08-09T06:09:40.986Z,4612
2022-08-09T06:11:16.810Z,4656
2022-08-09T06:13:03.231Z,4700
2022-08-09T06:14:23.342Z,4728
2022-08-09T06:15:27.052Z,4756
2022-08-09T06:16:34.280Z,4776
2022-08-09T06:17:38.968Z,4808
2022-08-09T06:18:47.779Z,4824
2022-08-09T06:19:54.731Z,4852
2022-08-09T06:20:58.397Z,4872
2022-08-09T06:22:05.943Z,4896
2022-08-09T06:23:55.866Z,4928
2022-08-09T06:25:12.289Z,4972
2022-08-09T06:26:22.869Z,5000
2022-08-09T06:27:41.281Z,5032
2022-08-09T06:28:59.220Z,5068
2022-08-09T06:30:16.933Z,5096
2022-08-09T06:31:19.622Z,5116
2022-08-09T06:34:55.058Z,5200
2022-08-09T06:35:58.762Z,5228
2022-08-09T06:37:08.914Z,5244
2022-08-09T06:38:13.589Z,5256
2022-08-09T06:40:00.054Z,5288
2022-08-09T06:41:55.813Z,5292
2022-08-09T06:43:14.359Z,5292
2022-08-09T06:44:18.180Z,5380
2022-08-09T06:46:05.849Z,5428
2022-08-09T06:47:46.155Z,5512
2022-08-09T06:49:04.076Z,5368
2022-08-09T06:50:12.572Z,5568
2022-08-09T06:51:32.988Z,5624
2022-08-09T06:52:43.014Z,5640
2022-08-09T06:53:50.044Z,5672
2022-08-09T06:54:55.574Z,5692
2022-08-09T06:55:58.202Z,5712
2022-08-09T06:57:02.274Z,5704
2022-08-09T06:58:12.641Z,5708
2022-08-09T07:02:05.205Z,5704
2022-08-09T07:03:11.157Z,5800
2022-08-09T07:04:19.607Z,5820
2022-08-09T07:05:53.571Z,5868
2022-08-09T07:07:12.255Z,5932
2022-08-09T07:09:05.819Z,6024
2022-08-09T07:11:45.805Z,6148
2022-08-09T07:12:57.314Z,6196
2022-08-09T07:14:45.570Z,6272
2022-08-09T07:16:40.200Z,6300
2022-08-09T07:18:02.196Z,6260
2022-08-09T07:19:18.900Z,6316
2022-08-09T07:20:28.511Z,6420
2022-08-09T07:21:34.242Z,6472
2022-08-09T07:23:00.511Z,6504
2022-08-09T07:24:31.718Z,6540
2022-08-09T07:26:02.346Z,6580
2022-08-09T07:27:10.769Z,6708
2022-08-09T07:29:01.442Z,6844
2022-08-09T07:30:16.956Z,6928
2022-08-09T07:31:38.383Z,7000
2022-08-09T07:32:51.722Z,7032
2022-08-09T07:33:58.059Z,7136
2022-08-09T07:35:08.291Z,7136
2022-08-09T07:36:16.495Z,7244
2022-08-09T07:37:20.419Z,7236
2022-08-09T07:38:31.011Z,7228
2022-08-09T07:39:40.589Z,7300
2022-08-09T07:41:00.808Z,7444
2022-08-09T07:42:21.205Z,7520
2022-08-09T07:43:41.248Z,7548
2022-08-09T07:45:02.668Z,7568
2022-08-09T07:46:43.034Z,7476
2022-08-09T07:48:01.024Z,7336
2022-08-09T07:49:08.241Z,7620
2022-08-09T07:50:17.501Z,7644
2022-08-09T07:52:04.071Z,7548
2022-08-09T07:53:36.328Z,7720
2022-08-09T07:55:11.556Z,7780
2022-08-09T07:56:26.560Z,7816
2022-08-09T07:57:34.083Z,7848
2022-08-09T07:58:53.231Z,7836
2022-08-09T08:00:02.840Z,7944
2022-08-09T08:02:07.304Z,8000
2022-08-09T08:03:21.576Z,8048
2022-08-09T08:04:31.944Z,8068
2022-08-09T08:05:39.342Z,8096
2022-08-09T08:07:09.257Z,8124
2022-08-09T08:12:09.573Z,8248
2022-08-09T08:13:38.177Z,8344
2022-08-09T08:15:01.202Z,8400
2022-08-09T08:16:04.289Z,8436
2022-08-09T08:18:01.100Z,8468
2022-08-09T08:19:06.523Z,8480
2022-08-09T08:20:12.783Z,8496
2022-08-09T08:21:29.790Z,8520
2022-08-09T08:22:33.007Z,8560
2022-08-09T08:23:40.958Z,8612
2022-08-09T08:25:17.513Z,8696
2022-08-09T08:26:52.473Z,8988
2022-08-09T08:27:59.276Z,10920
2022-08-09T08:29:02.696Z,15836
2022-08-09T08:30:05.688Z,17340
2022-08-09T08:31:14.082Z,15172
2022-08-09T08:32:19.062Z,11400
2022-08-09T08:33:58.779Z,9752
2022-08-09T08:35:01.619Z,9736
2022-08-09T08:36:05.266Z,9832
2022-08-09T08:37:14.348Z,9908
2022-08-09T08:39:12.392Z,10048
2022-08-09T08:40:24.469Z,10260
2022-08-09T08:41:42.257Z,10624
2022-08-09T08:43:03.435Z,25216
2022-08-09T08:44:18.433Z,23072
2022-08-09T08:45:38.183Z,13544
2022-08-09T08:48:16.920Z,105632
2022-08-09T08:49:22.598Z,127328
2022-08-09T08:50:51.830Z,125632
2022-08-09T08:52:00.609Z,125504
2022-08-09T08:54:05.319Z,124352
2022-08-09T08:55:32.714Z,126432
2022-08-09T08:56:36.346Z,126080
2022-08-09T08:57:43.061Z,120864
2022-08-09T08:59:07.855Z,125024
2022-08-09T09:00:59.885Z,127104
2022-08-09T09:03:08.498Z,126656
2022-08-09T09:04:47.712Z,128640
2022-08-09T09:06:10.496Z,129216
2022-08-09T09:07:16.758Z,132192
2022-08-09T09:08:29.599Z,133728
2022-08-09T09:10:02.637Z,134080
2022-08-09T09:11:13.461Z,134912
2022-08-09T09:12:22.198Z,136160
2022-08-09T09:13:34.882Z,131840
2022-08-09T09:15:01.494Z,137536
2022-08-09T09:16:08.086Z,133792
2022-08-09T09:17:16.311Z,134912
2022-08-09T09:18:22.108Z,136416
2022-08-09T09:19:41.042Z,137568
2022-08-09T09:20:46.945Z,133440
2022-08-09T09:21:53.826Z,134944
2022-08-09T09:23:08.353Z,136320
2022-08-09T09:24:21.663Z,135808
2022-08-09T09:26:02.891Z,136448
2022-08-09T09:27:21.907Z,138176
2022-08-09T09:30:39.191Z,138848
2022-08-09T09:32:01.590Z,136672
2022-08-09T09:33:44.556Z,138752
2022-08-09T09:35:02.292Z,138816
2022-08-09T09:36:20.736Z,140064
2022-08-09T09:37:26.309Z,139776
2022-08-09T09:38:43.049Z,137856
2022-08-09T09:39:50.477Z,136864
2022-08-09T09:41:09.889Z,135104
2022-08-09T09:42:13.895Z,133216
2022-08-09T09:43:23.189Z,131584
2022-08-09T09:44:27.702Z,130464
2022-08-09T09:45:56.673Z,126624
2022-08-09T09:47:56.855Z,125376
2022-08-09T09:49:05.949Z,126176
2022-08-09T09:50:15.551Z,124000
2022-08-09T09:51:37.828Z,123392
2022-08-09T09:52:52.644Z,125856
2022-08-09T09:54:04.763Z,121632
2022-08-09T09:55:29.084Z,121472
2022-08-09T09:56:36.249Z,122080
2022-08-09T09:59:29.329Z,126976
2022-08-09T10:00:39.776Z,127712
2022-08-09T10:02:38.736Z,127072
2022-08-09T10:03:56.587Z,124512
2022-08-09T10:05:16.217Z,123040
2022-08-09T10:07:09.882Z,123584
2022-08-09T10:08:28.135Z,125376
2022-08-09T10:09:59.472Z,128352
2022-08-09T10:11:52.697Z,129184
2022-08-09T10:13:45.350Z,128064
2022-08-09T10:14:53.074Z,123168
2022-08-09T10:16:09.357Z,111328
2022-08-09T10:19:01.395Z,111232
2022-08-09T10:20:15.185Z,112544
2022-08-09T10:21:48.678Z,128256
2022-08-09T10:22:58.579Z,131808
2022-08-09T10:24:03.830Z,132096
2022-08-09T10:25:54.509Z,132576
2022-08-09T10:27:28.453Z,133696
2022-08-09T10:29:21.503Z,133120
2022-08-09T10:34:05.129Z,128608
2022-08-09T10:35:38.749Z,129504
2022-08-09T10:36:45.508Z,130944
2022-08-09T10:37:51.745Z,131136
2022-08-09T10:38:57.369Z,133376
2022-08-09T10:40:32.437Z,134176
2022-08-09T10:41:56.852Z,136064
2022-08-09T10:43:05.237Z,135136
2022-08-09T10:44:15.144Z,134528
2022-08-09T10:45:22.656Z,132480
2022-08-09T10:47:03.894Z,129760
2022-08-09T10:49:42.671Z,128448
2022-08-09T10:50:57.176Z,125696
2022-08-09T10:52:03.066Z,123712
2022-08-09T10:53:10.223Z,122048
2022-08-09T10:54:13.282Z,121632
2022-08-09T10:55:15.891Z,118912
2022-08-09T10:56:22.556Z,120480
2022-08-09T10:57:26.998Z,123072
2022-08-09T10:58:43.754Z,124288
2022-08-09T10:59:57.965Z,123648
2022-08-09T11:01:11.298Z,125696
2022-08-09T11:05:33.427Z,122816
2022-08-09T11:07:04.130Z,111584
2022-08-09T11:08:07.505Z,114304
2022-08-09T11:09:15.639Z,118976
2022-08-09T11:10:20.811Z,116384
2022-08-09T11:11:32.961Z,122080
2022-08-09T11:12:54.814Z,108800
2022-08-09T11:13:58.259Z,92416
2022-08-09T11:15:03.796Z,106784
2022-08-09T11:16:07.855Z,107072
2022-08-09T11:17:41.672Z,106848
2022-08-09T11:18:47.240Z,126400
2022-08-09T11:20:08.166Z,126304
2022-08-09T11:21:26.316Z,113856
2022-08-09T11:23:29.881Z,108992
2022-08-09T11:24:37.120Z,112992
2022-08-09T11:25:45.490Z,105216
2022-08-09T11:27:06.727Z,109184
2022-08-09T11:29:05.776Z,123776
2022-08-09T11:30:21.894Z,127808
2022-08-09T11:31:52.526Z,128576
2022-08-09T11:32:59.986Z,124736
2022-08-09T11:34:02.776Z,124192
2022-08-09T11:35:08.702Z,126112
2022-08-09T11:36:14.852Z,130784
2022-08-09T11:37:41.494Z,129856
2022-08-09T11:38:53.789Z,123808
2022-08-09T11:39:57.976Z,116864
2022-08-09T11:41:01.707Z,113952
2022-08-09T11:42:05.945Z,104480
2022-08-09T11:43:16.600Z,95712
2022-08-09T11:44:22.792Z,97440
2022-08-09T11:45:37.633Z,95008
2022-08-09T11:46:47.578Z,95584
2022-08-09T11:47:50.808Z,86944
2022-08-09T11:48:56.970Z,84672
2022-08-09T11:50:52.681Z,79168
2022-08-09T11:55:51.861Z,96448
2022-08-09T11:57:28.537Z,102112
2022-08-09T11:59:12.582Z,95872
2022-08-09T12:00:15.961Z,101184
2022-08-09T12:01:38.021Z,99904
2022-08-09T12:03:56.473Z,100576
2022-08-09T12:05:02.945Z,102400
2022-08-09T12:06:31.949Z,101792
2022-08-09T12:07:41.741Z,104000
2022-08-09T12:08:46.207Z,103584
2022-08-09T12:09:51.976Z,97440
2022-08-09T12:10:57.075Z,85312
2022-08-09T12:12:02.885Z,91808
2022-08-09T12:14:08.760Z,105344
2022-08-09T12:16:49.726Z,105984
2022-08-09T12:18:54.315Z,104544
2022-08-09T12:19:59.414Z,104064
2022-08-09T12:21:03.018Z,100256
2022-08-09T12:22:57.807Z,98432
2022-08-09T12:24:06.621Z,98848
2022-08-09T12:25:15.212Z,104768
2022-08-09T12:26:19.434Z,109088
2022-08-09T12:29:00.778Z,115904
2022-08-09T12:31:58.334Z,114400
2022-08-09T12:33:07.296Z,111392
2022-08-09T12:34:17.074Z,108160
2022-08-09T12:35:22.061Z,105120
2022-08-09T12:36:27.908Z,103008
2022-08-09T12:37:44.421Z,114784
2022-08-09T12:38:56.792Z,115552
2022-08-09T12:40:00.162Z,113632
2022-08-09T12:41:07.512Z,120384
2022-08-09T12:42:16.206Z,117792
2022-08-09T12:43:19.647Z,120032
2022-08-09T12:45:33.103Z,121856
2022-08-09T12:47:01.714Z,124448
2022-08-09T12:48:28.054Z,125024
2022-08-09T12:49:50.966Z,120064
2022-08-09T12:50:59.341Z,115264
2022-08-09T12:52:06.158Z,110176
2022-08-09T12:53:18.456Z,110048
2022-08-09T12:55:03.370Z,109504
2022-08-09T12:57:58.992Z,109728
2022-08-09T12:59:01.996Z,114400
2022-08-09T13:00:07.402Z,115296
2022-08-09T13:01:17.014Z,110880
2022-08-09T13:02:33.066Z,102944
2022-08-09T13:03:58.731Z,98368
2022-08-09T13:05:04.686Z,108640
2022-08-09T13:06:14.843Z,107584
2022-08-09T13:07:28.769Z,103520
2022-08-09T13:09:01.282Z,104768
2022-08-09T13:10:09.546Z,101600
2022-08-09T13:11:22.870Z,102144
2022-08-09T13:12:29.545Z,100224
2022-08-09T13:14:38.782Z,97952
2022-08-09T13:15:58.521Z,101728
2022-08-09T13:17:08.476Z,99008
2022-08-09T13:18:17.380Z,91872
2022-08-09T13:20:08.100Z,71680
2022-08-09T13:25:07.954Z,89248
2022-08-09T13:26:17.719Z,50336
2022-08-09T13:27:48.433Z,34880
2022-08-09T13:29:04.373Z,90944
2022-08-09T13:30:49.665Z,69856
2022-08-09T13:33:35.857Z,29824
2022-08-09T13:34:57.315Z,28384
2022-08-09T13:36:24.008Z,41536
2022-08-09T13:37:51.582Z,35904
2022-08-09T13:39:02.588Z,53120
2022-08-09T13:43:15.620Z,36064
2022-08-09T13:44:42.032Z,23040
2022-08-09T13:46:08.331Z,22048
2022-08-09T13:49:02.488Z,65536
2022-08-09T13:50:39.948Z,65664
2022-08-09T13:51:58.770Z,63584
2022-08-09T13:53:10.959Z,58112
2022-08-09T13:54:13.784Z,54976
2022-08-09T13:55:20.907Z,53920
2022-08-09T13:56:25.516Z,55008
2022-08-09T13:57:36.095Z,55200
2022-08-09T13:58:44.556Z,54048
2022-08-09T13:59:50.787Z,54048
2022-08-09T14:01:03.118Z,57856
2022-08-09T14:03:17.292Z,55904
2022-08-09T14:05:56.340Z,52320
2022-08-09T14:07:44.336Z,57824
2022-08-09T14:09:05.403Z,59424
2022-08-09T14:10:08.752Z,58560
2022-08-09T14:11:55.210Z,57984
2022-08-09T14:12:59.341Z,59136
2022-08-09T14:16:07.497Z,58592
2022-08-09T14:17:22.546Z,56960
2022-08-09T14:19:33.896Z,55360
2022-08-09T14:20:37.032Z,54720
2022-08-09T14:21:45.590Z,54656
2022-08-09T14:22:50.644Z,53952
2022-08-09T14:24:01.043Z,53824
2022-08-09T14:25:42.760Z,53088
2022-08-09T14:26:53.487Z,55360
2022-08-09T14:27:57.317Z,55040
2022-08-09T14:29:01.218Z,53376
2022-08-09T14:31:50.371Z,46400
2022-08-09T14:33:11.739Z,44576
2022-08-09T14:34:27.782Z,41792
2022-08-09T14:35:52.494Z,40096
2022-08-09T14:36:56.796Z,41024
2022-08-09T14:38:02.204Z,43328
2022-08-09T14:39:08.792Z,43168
2022-08-09T14:40:12.956Z,46848
2022-08-09T14:41:26.829Z,47072
2022-08-09T14:42:52.015Z,45920
2022-08-09T14:43:55.409Z,43968
2022-08-09T14:45:00.777Z,42464
2022-08-09T14:49:04.013Z,45536
2022-08-09T14:50:17.636Z,44704
2022-08-09T14:51:22.696Z,43744
2022-08-09T14:52:47.718Z,42528
2022-08-09T14:53:53.700Z,41088
2022-08-09T14:54:56.331Z,40032
2022-08-09T14:56:00.116Z,39104
2022-08-09T14:57:06.590Z,38528
2022-08-09T14:58:10.350Z,35904
2022-08-09T14:59:14.236Z,32992
2022-08-09T15:00:18.127Z,28096
2022-08-09T15:01:20.389Z,23392
2022-08-09T15:02:23.555Z,19616
2022-08-09T15:03:27.804Z,16372
2022-08-09T15:04:33.650Z,14736
2022-08-09T15:05:36.815Z,14096
2022-08-09T15:07:00.193Z,13668
2022-08-09T15:08:03.147Z,13608
2022-08-09T15:09:06.003Z,13692
2022-08-09T15:10:14.187Z,13864
2022-08-09T15:11:19.800Z,13968
2022-08-09T15:12:25.037Z,14032
2022-08-09T15:13:48.738Z,14040
2022-08-09T15:15:20.968Z,13856
2022-08-09T15:16:24.029Z,13792
2022-08-09T15:17:42.006Z,13700
2022-08-09T15:18:55.924Z,13796
2022-08-09T15:21:53.891Z,14180
2022-08-09T15:23:56.591Z,14400
2022-08-09T15:25:38.950Z,14452
2022-08-09T15:26:45.217Z,14320
2022-08-09T15:28:00.652Z,13968
2022-08-09T15:30:49.160Z,13092
2022-08-09T15:32:42.468Z,11320
2022-08-09T15:34:15.560Z,11004
2022-08-09T15:35:40.558Z,10788
2022-08-09T15:37:09.760Z,10524
2022-08-09T15:39:11.038Z,9980
2022-08-09T15:40:20.267Z,9644
2022-08-09T15:41:35.251Z,9436
2022-08-09T15:42:51.518Z,9264
2022-08-09T15:43:54.432Z,9200
2022-08-09T15:45:01.809Z,9080
2022-08-09T15:46:08.231Z,9036
2022-08-09T15:47:45.746Z,8956
2022-08-09T15:49:35.548Z,8916
2022-08-09T15:51:11.583Z,8680
2022-08-09T15:53:18.685Z,8196
2022-08-09T15:55:58.755Z,7620
2022-08-09T15:57:43.957Z,7344
2022-08-09T15:58:55.670Z,7252
2022-08-09T15:59:58.534Z,7216
2022-08-09T16:01:01.507Z,7208
2022-08-09T16:02:05.545Z,7112
2022-08-09T16:03:18.970Z,7068
2022-08-09T16:04:51.851Z,6928
2022-08-09T16:05:56.003Z,6804
2022-08-09T16:07:05.781Z,6752
2022-08-09T16:08:15.317Z,6684
2022-08-09T16:09:51.641Z,6688
2022-08-09T16:11:58.889Z,6600
2022-08-09T16:13:04.283Z,6528
2022-08-09T16:16:04.044Z,6392
2022-08-09T16:17:29.747Z,6288
2022-08-09T16:18:37.998Z,6252
2022-08-09T16:19:49.167Z,6216
2022-08-09T16:21:16.741Z,6128
2022-08-09T16:22:36.977Z,6036
2022-08-09T16:23:55.837Z,6024
2022-08-09T16:25:37.110Z,5664
2022-08-09T16:26:51.571Z,5676
2022-08-09T16:27:58.393Z,5756
2022-08-09T16:29:05.877Z,5464
2022-08-09T16:30:25.927Z,5476
2022-08-09T16:32:10.908Z,4744
2022-08-09T16:33:55.378Z,4252
2022-08-09T16:35:11.885Z,4192
2022-08-09T16:37:54.366Z,4364
2022-08-09T16:39:02.860Z,4124
2022-08-09T16:40:09.257Z,4300
2022-08-09T16:41:14.276Z,4680
2022-08-09T16:43:08.607Z,4932
2022-08-09T16:44:11.653Z,4812
2022-08-09T16:45:16.754Z,4180
2022-08-09T16:46:21.351Z,4004
2022-08-09T16:48:37.304Z,4324
2022-08-09T16:51:39.460Z,3800
2022-08-09T16:53:01.184Z,3772
2022-08-09T16:54:26.367Z,3736
2022-08-09T16:55:44.580Z,3808
2022-08-09T16:57:15.411Z,3896
2022-08-09T16:58:19.214Z,3804
2022-08-09T16:59:24.182Z,3884
2022-08-09T17:00:50.572Z,3748
2022-08-09T17:01:57.929Z,3536
2022-08-09T17:03:06.811Z,3528
2022-08-09T17:04:28.866Z,3716
2022-08-09T17:06:03.143Z,3736
2022-08-09T17:10:48.717Z,3648
2022-08-09T17:11:57.266Z,3636
2022-08-09T17:13:00.448Z,3752
2022-08-09T17:14:16.047Z,3928
2022-08-09T17:15:59.595Z,3924
2022-08-09T17:17:12.968Z,3856
2022-08-09T17:19:02.906Z,3748
2022-08-09T17:20:29.491Z,3692
2022-08-09T17:21:55.648Z,3620
2022-08-09T17:23:00.221Z,3580
2022-08-09T17:24:21.596Z,3520
2022-08-09T17:25:58.522Z,3444
2022-08-09T17:27:06.615Z,3392
2022-08-09T17:28:18.218Z,3380
2022-08-09T17:29:21.106Z,3348
2022-08-09T17:30:47.709Z,3328
2022-08-09T17:31:54.145Z,3316
2022-08-09T17:33:01.036Z,3292
2022-08-09T17:35:01.691Z,3256
2022-08-09T17:36:16.052Z,3172
2022-08-09T17:37:22.501Z,3156
2022-08-09T17:39:48.708Z,3088
2022-08-09T17:40:58.341Z,3040
2022-08-09T17:42:02.273Z,3012
2022-08-09T17:43:11.028Z,2972
2022-08-09T17:46:02.361Z,2884
2022-08-09T17:47:11.570Z,2852
2022-08-09T17:48:15.683Z,2784
2022-08-09T17:49:19.647Z,2748
2022-08-09T17:50:25.208Z,2716
2022-08-09T17:51:59.542Z,2652
2022-08-09T17:53:10.478Z,2616
2022-08-09T17:54:28.194Z,2560
2022-08-09T17:55:47.288Z,2516
2022-08-09T17:57:17.321Z,2440
2022-08-09T17:59:16.116Z,2324
2022-08-09T18:00:44.022Z,2252
2022-08-09T18:02:06.891Z,2208
2022-08-09T18:03:40.094Z,2144
2022-08-09T18:04:49.491Z,2092
2022-08-09T18:05:53.133Z,2060
2022-08-09T18:06:56.467Z,2016
2022-08-09T18:07:59.615Z,1976
2022-08-09T18:09:16.923Z,1944
2022-08-09T18:10:21.312Z,1904
2022-08-09T18:11:29.490Z,1864
2022-08-09T18:15:01.116Z,1772
2022-08-09T18:16:15.216Z,1724
2022-08-09T18:18:00.869Z,1672
2022-08-09T18:20:57.748Z,1564
2022-08-09T18:22:44.229Z,1432
2022-08-09T18:24:09.304Z,1376
2022-08-09T18:25:18.070Z,1332
2022-08-09T18:27:01.234Z,1272
2022-08-09T18:28:19.255Z,1236
2022-08-09T18:31:55.445Z,1084
2022-08-09T18:32:59.126Z,1032
2022-08-09T18:34:24.425Z,972
2022-08-09T18:35:40.014Z,924
2022-08-09T18:37:03.109Z,848
2022-08-09T18:39:01.160Z,768
2022-08-09T18:40:06.530Z,724
2022-08-09T18:41:16.262Z,676
2022-08-09T18:42:36.695Z,628
2022-08-09T18:43:52.938Z,588
2022-08-09T18:44:57.004Z,548
2022-08-09T18:48:21.238Z,436
2022-08-09T18:49:41.920Z,396
2022-08-09T18:51:03.692Z,352